createdAt,value
2017-10-25T00:00:30.972Z,7.67
2017-10-25T00:03:01.112Z,9.73
2017-10-25T00:05:31.772Z,9.73
2017-10-25T00:08:01.800Z,7.73
2017-10-25T00:10:31.489Z,10.93
2017-10-25T00:13:01.257Z,11.37
2017-10-25T00:15:31.396Z,11.60
2017-10-25T00:18:01.592Z,8.87
2017-10-25T00:20:35.659Z,9.90
2017-10-25T00:23:05.404Z,7.73
2017-10-25T00:25:35.421Z,8.27
2017-10-25T00:28:05.466Z,9.87
2017-10-25T00:30:35.287Z,6.53
2017-10-25T00:33:04.933Z,6.23
2017-10-25T00:35:34.630Z,10.57
2017-10-25T00:38:04.213Z,12.40
2017-10-25T00:40:36.366Z,6.80
2017-10-25T00:43:06.006Z,7.40
2017-10-25T00:45:35.432Z,7.20
2017-10-25T00:48:06.470Z,10.23
2017-10-25T00:50:35.836Z,9.70
2017-10-25T00:53:05.413Z,8.30
2017-10-25T00:55:34.937Z,7.37
2017-10-25T00:58:04.760Z,5.80
2017-10-25T01:00:38.111Z,11.03
2017-10-25T01:03:07.543Z,9.00
2017-10-25T01:05:38.667Z,7.23
2017-10-25T01:08:09.288Z,7.33
2017-10-25T01:10:39.090Z,10.57
2017-10-25T01:13:11.772Z,6.43
2017-10-25T01:15:41.002Z,9.50
2017-10-25T01:18:19.266Z,6.40
2017-10-25T01:20:51.476Z,8.07
2017-10-25T01:23:21.547Z,9.43
2017-10-25T01:25:51.625Z,9.20
2017-10-25T01:28:22.057Z,10.10
2017-10-25T01:30:52.104Z,14.90
2017-10-25T01:33:21.334Z,8.27
2017-10-25T01:35:54.299Z,7.50
2017-10-25T01:38:24.979Z,6.63
2017-10-25T01:40:54.440Z,16.00
2017-10-25T01:43:23.462Z,6.57
2017-10-25T01:45:55.308Z,15.50
2017-10-25T01:48:24.644Z,8.43
2017-10-25T01:50:54.407Z,8.03
2017-10-25T01:53:24.034Z,7.00
2017-10-25T01:55:53.423Z,8.93
2017-10-25T01:58:27.366Z,8.97
2017-10-25T02:00:56.828Z,6.13
2017-10-25T02:03:27.317Z,8.87
2017-10-25T02:05:57.852Z,7.20
2017-10-25T02:08:27.327Z,9.80
2017-10-25T02:10:57.121Z,8.37
2017-10-25T02:13:27.791Z,8.47
2017-10-25T02:15:57.372Z,7.43
2017-10-25T02:18:27.128Z,6.00
2017-10-25T02:20:58.503Z,7.63
2017-10-25T02:23:29.670Z,8.70
2017-10-25T02:25:59.408Z,5.50
2017-10-25T02:28:28.988Z,10.33
2017-10-25T02:30:59.006Z,12.83
2017-10-25T02:33:28.493Z,9.63
2017-10-25T02:35:59.474Z,10.43
2017-10-25T02:38:30.613Z,9.10
2017-10-25T02:41:00.411Z,8.93
2017-10-25T02:43:30.789Z,8.43
2017-10-25T02:46:02.293Z,6.80
2017-10-25T02:48:33.218Z,7.90
2017-10-25T02:51:03.387Z,9.70
2017-10-25T02:53:33.680Z,15.43
2017-10-25T02:56:04.510Z,10.33
2017-10-25T02:58:33.816Z,8.50
2017-10-25T03:01:04.748Z,7.70
2017-10-25T03:03:38.491Z,9.90
2017-10-25T03:06:10.148Z,13.00
2017-10-25T03:08:39.890Z,10.53
2017-10-25T03:11:09.812Z,8.27
2017-10-25T03:13:39.927Z,10.43
2017-10-25T03:16:09.023Z,11.00
2017-10-25T03:18:38.319Z,14.77
2017-10-25T03:21:08.357Z,8.33
2017-10-25T03:23:38.628Z,16.57
2017-10-25T03:26:08.007Z,21.83
2017-10-25T03:28:37.997Z,16.40
2017-10-25T03:31:08.277Z,16.97
2017-10-25T03:33:37.546Z,20.73
2017-10-25T03:36:07.696Z,20.83
2017-10-25T03:38:38.217Z,10.70
2017-10-25T03:41:08.258Z,12.80
2017-10-25T03:43:38.832Z,9.27
2017-10-25T03:46:08.730Z,14.53
2017-10-25T03:48:38.198Z,13.70
2017-10-25T03:51:08.177Z,12.20
2017-10-25T03:53:37.473Z,12.90
2017-10-25T03:56:06.696Z,10.53
2017-10-25T03:58:35.982Z,11.80
2017-10-25T04:01:05.251Z,15.07
2017-10-25T04:03:35.699Z,19.30
2017-10-25T04:06:06.753Z,11.10
2017-10-25T04:08:36.327Z,13.23
2017-10-25T04:11:06.792Z,14.37
2017-10-25T04:13:37.012Z,16.83
2017-10-25T04:16:07.211Z,11.33
2017-10-25T04:18:36.776Z,11.40
2017-10-25T04:21:06.235Z,18.37
2017-10-25T04:23:36.127Z,21.43
2017-10-25T04:26:05.374Z,45.67
2017-10-25T04:28:34.488Z,24.67
2017-10-25T04:31:03.670Z,12.87
2017-10-25T04:33:33.429Z,21.23
2017-10-25T04:36:02.827Z,14.03
2017-10-25T04:38:32.200Z,14.93
2017-10-25T04:41:01.620Z,17.00
2017-10-25T04:43:30.356Z,24.00
2017-10-25T04:45:59.932Z,15.83
2017-10-25T04:48:29.134Z,17.27
2017-10-25T04:50:58.357Z,15.93
2017-10-25T04:53:27.664Z,15.90
2017-10-25T04:55:57.960Z,14.20
2017-10-25T04:58:27.150Z,14.00
2017-10-25T05:00:56.509Z,19.20
2017-10-25T05:03:25.884Z,16.13
2017-10-25T05:05:55.664Z,12.63
2017-10-25T05:08:25.566Z,16.87
2017-10-25T05:10:55.845Z,12.87
2017-10-25T05:13:25.386Z,13.33
2017-10-25T05:15:55.766Z,14.83
2017-10-25T05:18:25.023Z,22.27
2017-10-25T05:20:56.934Z,111.03
2017-10-25T05:23:30.772Z,54.33
2017-10-25T05:26:00.046Z,29.30
2017-10-25T05:28:29.295Z,17.23
2017-10-25T05:30:58.479Z,12.23
2017-10-25T05:33:27.661Z,12.30
2017-10-25T05:35:57.496Z,18.83
2017-10-25T05:38:27.441Z,11.23
2017-10-25T05:40:58.071Z,10.33
2017-10-25T05:43:27.155Z,13.90
2017-10-25T05:45:56.536Z,12.63
2017-10-25T05:48:26.512Z,7.00
2017-10-25T05:50:56.496Z,8.30
2017-10-25T05:53:25.870Z,10.57
2017-10-25T05:55:55.207Z,12.90
2017-10-25T05:58:24.355Z,9.73
2017-10-25T06:00:53.680Z,13.80
2017-10-25T06:03:23.190Z,8.30
2017-10-25T06:05:52.386Z,8.60
2017-10-25T06:08:21.755Z,8.97
2017-10-25T06:10:50.937Z,9.43
2017-10-25T06:13:25.780Z,10.50
2017-10-25T06:15:54.988Z,11.57
2017-10-25T06:18:24.330Z,12.63
2017-10-25T06:20:53.481Z,9.50
2017-10-25T06:23:22.698Z,10.23
2017-10-25T06:25:52.058Z,14.93
2017-10-25T06:28:21.521Z,5.87
2017-10-25T06:30:51.001Z,7.00
2017-10-25T06:33:20.239Z,10.57
2017-10-25T06:35:49.680Z,10.30
2017-10-25T06:38:18.925Z,5.80
2017-10-25T06:40:48.089Z,8.27
2017-10-25T06:43:17.452Z,8.57
2017-10-25T06:45:46.612Z,9.07
2017-10-25T06:48:15.833Z,6.33
2017-10-25T06:50:45.069Z,10.47
2017-10-25T06:53:15.247Z,9.40
2017-10-25T06:55:44.776Z,9.80
2017-10-25T06:58:14.077Z,10.60
2017-10-25T07:00:43.310Z,12.60
2017-10-25T07:03:12.936Z,9.13
2017-10-25T07:05:42.277Z,10.23
2017-10-25T07:08:11.496Z,7.60
2017-10-25T07:10:40.651Z,9.40
2017-10-25T07:13:10.118Z,11.87
2017-10-25T07:15:39.302Z,8.40
2017-10-25T07:18:09.143Z,8.00
2017-10-25T07:20:38.362Z,6.90
2017-10-25T07:23:07.466Z,10.57
2017-10-25T07:25:37.584Z,11.30
2017-10-25T07:28:07.528Z,11.83
2017-10-25T07:30:36.985Z,7.00
2017-10-25T07:33:06.176Z,7.50
2017-10-25T07:35:35.280Z,11.80
2017-10-25T07:38:04.547Z,8.10
2017-10-25T07:40:34.721Z,12.13
2017-10-25T07:43:04.039Z,18.53
2017-10-25T07:45:33.211Z,13.27
2017-10-25T07:48:02.844Z,10.63
2017-10-25T07:50:32.245Z,13.87
2017-10-25T07:53:01.448Z,35.90
2017-10-25T07:55:30.833Z,40.70
2017-10-25T07:58:00.004Z,31.23
2017-10-25T08:00:29.584Z,28.77
2017-10-25T08:02:58.706Z,63.97
2017-10-25T08:05:28.137Z,87.47
2017-10-25T08:07:58.376Z,87.23
2017-10-25T08:10:27.556Z,113.90
2017-10-25T08:12:56.864Z,103.87
2017-10-25T08:15:26.228Z,77.77
2017-10-25T08:17:55.868Z,68.03
2017-10-25T08:20:25.247Z,41.40
2017-10-25T08:22:54.686Z,31.90
2017-10-25T08:25:23.879Z,34.77
2017-10-25T08:27:53.315Z,29.70
2017-10-25T08:30:24.385Z,30.47
2017-10-25T08:32:53.977Z,32.00
2017-10-25T08:35:23.496Z,31.13
2017-10-25T08:37:53.388Z,26.17
2017-10-25T08:40:23.026Z,25.63
2017-10-25T08:42:52.462Z,29.37
2017-10-25T08:45:22.138Z,27.90
2017-10-25T08:47:51.068Z,25.63
2017-10-25T08:50:20.426Z,24.23
2017-10-25T08:52:49.601Z,20.13
2017-10-25T08:55:19.153Z,19.30
2017-10-25T08:57:48.456Z,19.30
2017-10-25T09:00:18.002Z,19.87
2017-10-25T09:02:48.554Z,18.83
2017-10-25T09:05:18.716Z,21.23
2017-10-25T09:07:47.819Z,24.27
2017-10-25T09:10:17.280Z,65.70
2017-10-25T09:12:47.306Z,42.50
2017-10-25T09:15:16.686Z,28.37
2017-10-25T09:17:46.214Z,22.17
2017-10-25T09:20:15.377Z,21.10
2017-10-25T09:22:46.544Z,104.60
2017-10-25T09:25:16.887Z,72.33
2017-10-25T09:27:46.014Z,41.03
2017-10-25T09:30:15.121Z,73.37
2017-10-25T09:32:45.841Z,67.87
2017-10-25T09:35:15.188Z,57.63
2017-10-25T09:37:45.372Z,37.43
2017-10-25T09:40:14.725Z,34.17
2017-10-25T09:42:44.575Z,35.70
2017-10-25T09:45:13.867Z,25.27
2017-10-25T09:47:43.350Z,36.60
2017-10-25T09:50:12.629Z,42.20
2017-10-25T09:52:42.662Z,40.00
2017-10-25T09:55:11.865Z,47.83
2017-10-25T09:57:41.304Z,42.83
2017-10-25T10:00:10.605Z,27.48
2017-10-25T10:02:40.068Z,18.55
2017-10-25T10:05:09.556Z,26.98
2017-10-25T10:07:39.785Z,21.33
2017-10-25T10:10:09.616Z,24.05
2017-10-25T10:12:40.260Z,19.15
2017-10-25T10:15:09.594Z,20.20
2017-10-25T10:17:38.671Z,14.75
2017-10-25T10:20:08.090Z,26.02
2017-10-25T10:22:37.439Z,21.60
2017-10-25T10:25:06.679Z,21.02
2017-10-25T10:27:35.919Z,17.80
2017-10-25T10:30:05.182Z,28.63
2017-10-25T10:32:34.541Z,30.77
2017-10-25T10:35:04.768Z,31.52
2017-10-25T10:37:34.030Z,23.70
2017-10-25T10:40:03.361Z,30.65
2017-10-25T10:42:33.088Z,17.35
2017-10-25T10:45:02.389Z,26.10
2017-10-25T10:47:31.805Z,19.83
2017-10-25T10:50:01.380Z,20.05
2017-10-25T10:52:30.494Z,24.17
2017-10-25T10:54:59.678Z,23.62
2017-10-25T10:57:29.016Z,16.33
2017-10-25T10:59:58.865Z,21.90
2017-10-25T11:02:28.039Z,25.65
2017-10-25T11:04:58.465Z,20.25
2017-10-25T11:07:28.367Z,26.62
2017-10-25T11:09:57.580Z,21.55
2017-10-25T11:12:26.669Z,21.50
2017-10-25T11:14:55.923Z,20.25
2017-10-25T11:17:25.188Z,24.83
2017-10-25T11:19:54.641Z,26.48
2017-10-25T11:22:24.303Z,20.48
2017-10-25T11:24:53.751Z,23.40
2017-10-25T11:27:23.296Z,25.75
2017-10-25T11:29:52.463Z,25.48
2017-10-25T11:32:22.081Z,25.85
2017-10-25T11:34:51.293Z,20.88
2017-10-25T11:37:22.261Z,20.85
2017-10-25T11:39:51.721Z,28.23
2017-10-25T11:42:21.553Z,22.98
2017-10-25T11:44:50.765Z,22.95
2017-10-25T11:47:20.187Z,22.37
2017-10-25T11:49:49.962Z,17.77
2017-10-25T11:52:18.731Z,21.27
2017-10-25T11:54:47.481Z,21.30
2017-10-25T11:57:16.195Z,17.75
2017-10-25T11:59:45.294Z,31.73
2017-10-25T12:02:15.842Z,26.80
2017-10-25T12:04:45.216Z,36.30
2017-10-25T12:07:15.246Z,34.55
2017-10-25T12:09:44.650Z,41.42
2017-10-25T12:12:14.052Z,24.35
2017-10-25T12:14:43.354Z,20.33
2017-10-25T12:17:13.063Z,24.83
2017-10-25T12:19:42.672Z,21.52
2017-10-25T12:22:12.147Z,25.77
2017-10-25T12:24:42.079Z,23.85
2017-10-25T12:27:11.927Z,23.10
2017-10-25T12:29:41.535Z,24.65
2017-10-25T12:32:10.930Z,28.50
2017-10-25T12:34:40.146Z,25.20
2017-10-25T12:37:09.648Z,23.45
2017-10-25T12:39:39.297Z,21.70
2017-10-25T12:42:08.886Z,30.00
2017-10-25T12:44:38.091Z,21.20
2017-10-25T12:47:07.239Z,20.92
2017-10-25T12:49:36.623Z,22.15
2017-10-25T12:52:06.864Z,19.48
2017-10-25T12:54:35.974Z,25.95
2017-10-25T12:57:05.400Z,28.27
2017-10-25T12:59:34.859Z,25.20
2017-10-25T13:02:04.193Z,24.63
2017-10-25T13:04:33.656Z,18.27
2017-10-25T13:07:02.921Z,15.88
2017-10-25T13:09:32.285Z,19.83
2017-10-25T13:12:07.721Z,17.10
2017-10-25T13:14:56.064Z,26.23
2017-10-25T13:17:44.592Z,26.12
2017-10-25T13:20:14.180Z,30.33
2017-10-25T13:22:44.410Z,19.17
2017-10-25T13:25:13.870Z,20.80
2017-10-25T13:27:43.166Z,35.45
2017-10-25T13:30:12.622Z,50.15
2017-10-25T13:32:42.002Z,23.62
2017-10-25T13:35:11.383Z,139.65
2017-10-25T13:37:41.447Z,28.10
2017-10-25T13:40:10.735Z,25.73
2017-10-25T13:42:40.054Z,23.60
2017-10-25T13:45:09.325Z,21.08
2017-10-25T13:47:39.083Z,24.75
2017-10-25T13:50:08.318Z,19.08
2017-10-25T13:52:37.814Z,19.62
2017-10-25T13:55:07.129Z,18.55
2017-10-25T13:57:36.655Z,28.70
2017-10-25T14:00:06.146Z,18.48
2017-10-25T14:02:35.782Z,56.87
2017-10-25T14:05:05.729Z,17.73
2017-10-25T14:07:35.048Z,83.20
2017-10-25T14:10:04.295Z,196.30
2017-10-25T14:12:33.752Z,123.53
2017-10-25T14:15:03.058Z,136.27
2017-10-25T14:17:32.320Z,61.55
2017-10-25T14:20:02.028Z,23.35
2017-10-25T14:22:31.380Z,39.63
2017-10-25T14:25:00.554Z,19.12
2017-10-25T14:27:41.125Z,14.80
2017-10-25T14:30:10.354Z,23.80
2017-10-25T14:32:39.501Z,14.35
2017-10-25T14:35:08.847Z,12.40
2017-10-25T14:37:38.325Z,12.40
2017-10-25T14:40:08.415Z,12.75
2017-10-25T14:42:47.621Z,12.23
2017-10-25T14:45:17.003Z,12.45
2017-10-25T14:47:46.197Z,12.85
2017-10-25T14:50:16.657Z,11.85
2017-10-25T14:52:45.819Z,12.37
2017-10-25T14:55:14.907Z,10.85
2017-10-25T14:57:44.134Z,12.48
2017-10-25T15:00:13.253Z,11.23
2017-10-25T15:02:42.621Z,13.73
2017-10-25T15:05:11.885Z,11.32
2017-10-25T15:07:41.132Z,16.17
2017-10-25T15:10:10.434Z,16.23
2017-10-25T15:12:39.859Z,41.80
2017-10-25T15:15:10.186Z,27.17
2017-10-25T15:17:39.493Z,20.08
2017-10-25T15:20:08.722Z,25.33
2017-10-25T15:22:37.896Z,20.75
2017-10-25T15:25:06.922Z,24.20
2017-10-25T15:27:36.229Z,16.27
2017-10-25T15:30:05.527Z,16.85
2017-10-25T15:32:34.717Z,16.02
2017-10-25T15:35:04.241Z,16.95
2017-10-25T15:37:33.709Z,18.67
2017-10-25T15:40:03.847Z,22.35
2017-10-25T15:42:33.545Z,21.98
2017-10-25T15:45:02.872Z,23.80
2017-10-25T15:47:36.436Z,17.05
2017-10-25T15:50:05.571Z,26.10
2017-10-25T15:52:34.651Z,24.55
2017-10-25T15:55:03.882Z,19.55
2017-10-25T15:57:33.246Z,17.30
2017-10-25T16:00:02.647Z,18.67
2017-10-25T16:02:32.462Z,17.52
2017-10-25T16:05:01.690Z,19.65
2017-10-25T16:07:30.871Z,18.75
2017-10-25T16:10:00.168Z,16.17
2017-10-25T16:12:29.222Z,16.70
2017-10-25T16:14:58.749Z,17.23
2017-10-25T16:17:28.125Z,18.33
2017-10-25T16:19:58.298Z,23.40
2017-10-25T16:22:31.985Z,21.70
2017-10-25T16:25:01.158Z,25.03
2017-10-25T16:27:30.559Z,19.57
2017-10-25T16:30:00.791Z,21.70
2017-10-25T16:32:30.199Z,24.47
2017-10-25T16:34:59.663Z,32.97
2017-10-25T16:37:29.745Z,30.93
2017-10-25T16:39:58.890Z,27.20
2017-10-25T16:42:30.958Z,30.73
2017-10-25T16:45:00.881Z,27.87
2017-10-25T16:47:31.152Z,27.20
2017-10-25T16:50:00.455Z,28.30
2017-10-25T16:52:29.824Z,34.37
2017-10-25T16:54:59.389Z,36.47
2017-10-25T16:57:28.890Z,38.27
2017-10-25T16:59:58.285Z,32.83
2017-10-25T17:02:27.575Z,36.73
2017-10-25T17:04:56.659Z,36.70
2017-10-25T17:07:25.963Z,44.00
2017-10-25T17:09:55.513Z,38.87
2017-10-25T17:12:24.813Z,35.23
2017-10-25T17:14:54.123Z,37.80
2017-10-25T17:17:23.533Z,36.03
2017-10-25T17:19:53.696Z,37.70
2017-10-25T17:22:22.682Z,40.43
2017-10-25T17:24:53.167Z,43.80
2017-10-25T17:27:23.352Z,37.33
2017-10-25T17:29:52.551Z,33.10
2017-10-25T17:32:21.810Z,37.33
2017-10-25T17:34:51.422Z,32.17
2017-10-25T17:37:20.659Z,34.97
2017-10-25T17:39:49.872Z,31.87
2017-10-25T17:42:19.460Z,33.97
2017-10-25T17:44:48.530Z,31.20
2017-10-25T17:47:17.595Z,25.17
2017-10-25T17:49:47.561Z,28.20
2017-10-25T17:52:17.835Z,35.13
2017-10-25T17:54:47.907Z,29.23
2017-10-25T17:57:19.988Z,28.07
2017-10-25T17:59:50.040Z,28.43
2017-10-25T18:02:19.939Z,27.23
2017-10-25T18:04:49.395Z,24.50
2017-10-25T18:07:19.131Z,25.40
2017-10-25T18:09:48.267Z,27.63
2017-10-25T18:12:18.180Z,27.20
2017-10-25T18:14:47.673Z,26.60
2017-10-25T18:17:16.954Z,29.03
2017-10-25T18:19:46.234Z,25.10
2017-10-25T18:22:15.521Z,27.00
2017-10-25T18:24:44.732Z,27.50
2017-10-25T18:27:14.129Z,27.33
2017-10-25T18:29:43.462Z,30.87
2017-10-25T18:32:12.376Z,32.07
2017-10-25T18:34:41.879Z,25.67
2017-10-25T18:37:11.141Z,28.30
2017-10-25T18:39:40.348Z,30.07
2017-10-25T18:42:09.827Z,25.27
2017-10-25T18:44:39.152Z,22.10
2017-10-25T18:47:09.164Z,26.10
2017-10-25T18:49:38.465Z,28.87
2017-10-25T18:52:07.643Z,21.43
2017-10-25T18:54:37.856Z,20.00
2017-10-25T18:57:07.195Z,13.37
2017-10-25T18:59:36.371Z,9.60
2017-10-25T19:02:05.690Z,13.37
2017-10-25T19:04:34.862Z,16.63
2017-10-25T19:07:04.359Z,17.27
2017-10-25T19:09:33.818Z,13.80
2017-10-25T19:12:03.437Z,12.27
2017-10-25T19:14:33.615Z,29.90
2017-10-25T19:17:03.181Z,35.30
2017-10-25T19:19:32.538Z,25.63
2017-10-25T19:22:01.831Z,28.60
2017-10-25T19:24:31.482Z,26.77
2017-10-25T19:27:01.768Z,27.03
2017-10-25T19:29:31.019Z,29.20
2017-10-25T19:32:00.327Z,29.20
2017-10-25T19:34:29.480Z,25.73
2017-10-25T19:36:58.838Z,23.70
2017-10-25T19:39:28.011Z,20.73
2017-10-25T19:41:57.252Z,22.67
2017-10-25T19:44:26.622Z,11.00
2017-10-25T19:46:57.072Z,14.43
2017-10-25T19:49:26.144Z,14.83
2017-10-25T19:51:55.666Z,9.03
2017-10-25T19:54:24.979Z,9.47
2017-10-25T19:56:54.510Z,11.40
2017-10-25T19:59:23.791Z,11.63
2017-10-25T20:01:52.919Z,23.53
2017-10-25T20:04:22.352Z,20.20
2017-10-25T20:06:51.808Z,13.50
2017-10-25T20:09:21.013Z,11.13
2017-10-25T20:11:50.626Z,11.07
2017-10-25T20:14:19.956Z,10.07
2017-10-25T20:16:50.573Z,11.67
2017-10-25T20:19:20.652Z,9.60
2017-10-25T20:21:49.850Z,12.67
2017-10-25T20:24:19.249Z,9.50
2017-10-25T20:26:48.392Z,8.07
2017-10-25T20:29:17.507Z,13.10
2017-10-25T20:31:46.992Z,11.50
2017-10-25T20:34:16.585Z,12.67
2017-10-25T20:36:45.875Z,10.37
2017-10-25T20:39:15.075Z,9.30
2017-10-25T20:41:44.270Z,11.30
2017-10-25T20:44:30.526Z,16.50
2017-10-25T20:47:18.142Z,16.43
2017-10-25T20:50:04.214Z,19.47
2017-10-25T20:52:51.190Z,19.47
2017-10-25T20:55:21.267Z,18.23
2017-10-25T20:57:51.305Z,19.30
2017-10-25T21:00:20.939Z,22.70
2017-10-25T21:02:50.561Z,31.63
2017-10-25T21:05:20.012Z,19.97
2017-10-25T21:07:50.391Z,20.60
2017-10-25T21:10:19.778Z,17.80
2017-10-25T21:12:49.049Z,22.10
2017-10-25T21:15:18.703Z,31.10
2017-10-25T21:17:48.007Z,19.53
2017-10-25T21:20:17.356Z,26.20
2017-10-25T21:22:46.553Z,26.90
2017-10-25T21:25:16.003Z,27.20
2017-10-25T21:27:45.235Z,23.83
2017-10-25T21:30:15.601Z,21.97
2017-10-25T21:32:44.927Z,24.43
2017-10-25T21:35:14.106Z,26.20
2017-10-25T21:37:43.326Z,25.33
2017-10-25T21:40:12.690Z,27.07
2017-10-25T21:42:42.039Z,26.13
2017-10-25T21:45:11.219Z,26.40
2017-10-25T21:47:41.477Z,25.00
2017-10-25T21:50:11.122Z,23.57
2017-10-25T21:52:40.207Z,24.60
2017-10-25T21:55:10.316Z,23.77
2017-10-25T21:57:40.708Z,21.03
2017-10-25T22:00:10.425Z,22.27
2017-10-25T22:02:39.587Z,24.97
2017-10-25T22:05:08.850Z,22.50
2017-10-25T22:07:38.093Z,18.60
2017-10-25T22:10:07.483Z,21.10
2017-10-25T22:12:37.087Z,18.60
2017-10-25T22:15:06.436Z,18.90
2017-10-25T22:17:35.838Z,19.47
2017-10-25T22:20:05.095Z,20.97
2017-10-25T22:22:34.507Z,21.10
2017-10-25T22:25:04.582Z,18.80
2017-10-25T22:27:34.522Z,20.73
2017-10-25T22:30:04.407Z,18.60
2017-10-25T22:32:34.326Z,19.83
2017-10-25T22:35:03.679Z,19.83
2017-10-25T22:37:33.081Z,19.43
2017-10-25T22:40:02.266Z,19.10
2017-10-25T22:42:31.580Z,19.30
2017-10-25T22:45:00.998Z,21.47
2017-10-25T22:47:29.885Z,17.60
2017-10-25T22:50:00.399Z,19.90
2017-10-25T22:52:29.607Z,19.30
2017-10-25T22:54:58.992Z,18.50
2017-10-25T22:57:28.541Z,19.80
2017-10-25T22:59:58.145Z,18.97
2017-10-25T23:02:27.836Z,18.47
2017-10-25T23:04:59.835Z,18.20
2017-10-25T23:07:31.343Z,18.57
2017-10-25T23:10:01.862Z,18.47
2017-10-25T23:12:33.467Z,19.50
2017-10-25T23:15:03.538Z,17.43
2017-10-25T23:17:33.102Z,22.00
2017-10-25T23:20:02.346Z,18.90
2017-10-25T23:22:33.584Z,17.70
2017-10-25T23:25:02.682Z,18.33
2017-10-25T23:27:34.153Z,18.83
2017-10-25T23:30:03.614Z,18.37
2017-10-25T23:32:33.711Z,17.23
2017-10-25T23:35:03.769Z,17.47
2017-10-25T23:37:34.179Z,15.90
2017-10-25T23:40:05.342Z,17.23
2017-10-25T23:42:34.524Z,16.90
2017-10-25T23:45:04.718Z,17.00
2017-10-25T23:47:33.931Z,17.70
2017-10-25T23:50:03.747Z,17.17
2017-10-25T23:52:33.297Z,17.40
2017-10-25T23:55:02.597Z,17.50
2017-10-25T23:57:31.870Z,15.47
